sensor_id;sensor_type;location;lat;lon;timestamp;temperature;humidity
80426;DHT22;69766;51.476;5.704;2024-01-07T00:04:46;1.70;99.90
80426;DHT22;69766;51.476;5.704;2024-01-07T00:11:09;1.80;99.90
80426;DHT22;69766;51.476;5.704;2024-01-07T00:14:25;1.80;99.90
80426;DHT22;69766;51.476;5.704;2024-01-07T00:16:57;1.80;99.90
80426;DHT22;69766;51.476;5.704;2024-01-07T00:36:35;1.80;99.90
80426;DHT22;69766;51.476;5.704;2024-01-07T00:39:31;1.80;99.90
80426;DHT22;69766;51.476;5.704;2024-01-07T00:42:05;1.80;99.90
80426;DHT22;69766;51.476;5.704;2024-01-07T00:48:08;1.80;99.90
80426;DHT22;69766;51.476;5.704;2024-01-07T01:01:09;1.80;99.90
80426;DHT22;69766;51.476;5.704;2024-01-07T01:07:29;1.80;99.90
80426;DHT22;69766;51.476;5.704;2024-01-07T01:16:16;1.80;99.90
80426;DHT22;69766;51.476;5.704;2024-01-07T01:22:23;1.80;99.90
80426;DHT22;69766;51.476;5.704;2024-01-07T01:25:21;1.80;99.90
80426;DHT22;69766;51.476;5.704;2024-01-07T01:28:12;1.80;99.90
80426;DHT22;69766;51.476;5.704;2024-01-07T01:44:14;1.70;99.90
80426;DHT22;69766;51.476;5.704;2024-01-07T01:47:18;1.70;99.90
80426;DHT22;69766;51.476;5.704;2024-01-07T01:53:51;1.70;99.90
80426;DHT22;69766;51.476;5.704;2024-01-07T01:57:19;1.60;99.90
80426;DHT22;69766;51.476;5.704;2024-01-07T01:59:41;1.60;99.90
80426;DHT22;69766;51.476;5.704;2024-01-07T02:05:33;1.50;99.90
80426;DHT22;69766;51.476;5.704;2024-01-07T02:11:38;1.50;99.90
80426;DHT22;69766;51.476;5.704;2024-01-07T02:17:21;1.60;99.90
80426;DHT22;69766;51.476;5.704;2024-01-07T02:19:50;1.50;99.90
80426;DHT22;69766;51.476;5.704;2024-01-07T02:22:16;1.60;99.90
80426;DHT22;69766;51.476;5.704;2024-01-07T02:25:02;1.50;99.90
80426;DHT22;69766;51.476;5.704;2024-01-07T02:27:52;1.50;99.90
80426;DHT22;69766;51.476;5.704;2024-01-07T02:30:21;1.50;99.90
80426;DHT22;69766;51.476;5.704;2024-01-07T02:33:02;1.40;99.90
80426;DHT22;69766;51.476;5.704;2024-01-07T02:36:06;1.50;99.90
80426;DHT22;69766;51.476;5.704;2024-01-07T02:38:35;1.50;99.90
80426;DHT22;69766;51.476;5.704;2024-01-07T02:41:28;1.40;99.90
80426;DHT22;69766;51.476;5.704;2024-01-07T02:44:00;1.50;99.90
80426;DHT22;69766;51.476;5.704;2024-01-07T02:46:47;1.60;99.90
80426;DHT22;69766;51.476;5.704;2024-01-07T02:49:19;1.40;99.90
80426;DHT22;69766;51.476;5.704;2024-01-07T02:51:51;1.50;99.90
80426;DHT22;69766;51.476;5.704;2024-01-07T03:06:49;1.60;99.90
80426;DHT22;69766;51.476;5.704;2024-01-07T03:12:41;1.60;99.90
80426;DHT22;69766;51.476;5.704;2024-01-07T03:15:50;1.60;99.90
80426;DHT22;69766;51.476;5.704;2024-01-07T03:21:53;1.60;99.90
80426;DHT22;69766;51.476;5.704;2024-01-07T03:28:09;1.60;99.90
80426;DHT22;69766;51.476;5.704;2024-01-07T03:30:46;1.50;99.90
80426;DHT22;69766;51.476;5.704;2024-01-07T03:33:43;1.50;99.90
80426;DHT22;69766;51.476;5.704;2024-01-07T03:36:16;1.50;99.90
80426;DHT22;69766;51.476;5.704;2024-01-07T03:39:23;1.50;99.90
80426;DHT22;69766;51.476;5.704;2024-01-07T03:41:55;1.50;99.90
80426;DHT22;69766;51.476;5.704;2024-01-07T03:44:40;1.50;99.90
80426;DHT22;69766;51.476;5.704;2024-01-07T03:47:36;1.50;99.90
80426;DHT22;69766;51.476;5.704;2024-01-07T03:50:28;1.60;99.90
80426;DHT22;69766;51.476;5.704;2024-01-07T03:56:01;1.40;99.90
80426;DHT22;69766;51.476;5.704;2024-01-07T03:58:30;1.30;99.90
80426;DHT22;69766;51.476;5.704;2024-01-07T04:01:23;1.30;99.90
80426;DHT22;69766;51.476;5.704;2024-01-07T04:04:03;1.30;99.90
80426;DHT22;69766;51.476;5.704;2024-01-07T04:10:25;1.20;99.90
80426;DHT22;69766;51.476;5.704;2024-01-07T04:13:10;1.30;99.90
80426;DHT22;69766;51.476;5.704;2024-01-07T04:15:47;1.30;99.90
80426;DHT22;69766;51.476;5.704;2024-01-07T04:18:16;1.30;99.90
80426;DHT22;69766;51.476;5.704;2024-01-07T04:20:45;1.30;99.90
80426;DHT22;69766;51.476;5.704;2024-01-07T04:23:14;1.30;99.90
80426;DHT22;69766;51.476;5.704;2024-01-07T04:25:54;1.40;99.90
80426;DHT22;69766;51.476;5.704;2024-01-07T04:28:29;1.30;99.90
80426;DHT22;69766;51.476;5.704;2024-01-07T04:31:42;1.30;99.90
80426;DHT22;69766;51.476;5.704;2024-01-07T04:34:08;1.40;99.90
80426;DHT22;69766;51.476;5.704;2024-01-07T04:37:42;1.30;99.90
80426;DHT22;69766;51.476;5.704;2024-01-07T04:43:36;1.40;99.90
80426;DHT22;69766;51.476;5.704;2024-01-07T04:54:15;1.30;99.90
80426;DHT22;69766;51.476;5.704;2024-01-07T05:03:49;1.30;99.90
80426;DHT22;69766;51.476;5.704;2024-01-07T05:06:29;1.20;99.90
80426;DHT22;69766;51.476;5.704;2024-01-07T05:09:32;1.20;99.90
80426;DHT22;69766;51.476;5.704;2024-01-07T05:12:40;1.20;99.90
80426;DHT22;69766;51.476;5.704;2024-01-07T05:15:48;1.10;99.90
80426;DHT22;69766;51.476;5.704;2024-01-07T05:21:53;1.20;99.90
80426;DHT22;69766;51.476;5.704;2024-01-07T05:24:35;1.10;99.90
80426;DHT22;69766;51.476;5.704;2024-01-07T05:27:13;1.20;99.90
80426;DHT22;69766;51.476;5.704;2024-01-07T05:29:48;1.20;99.90
80426;DHT22;69766;51.476;5.704;2024-01-07T05:32:31;1.20;99.90
80426;DHT22;69766;51.476;5.704;2024-01-07T05:35:03;1.20;99.90
80426;DHT22;69766;51.476;5.704;2024-01-07T05:37:38;1.20;99.90
80426;DHT22;69766;51.476;5.704;2024-01-07T05:40:03;1.10;99.90
80426;DHT22;69766;51.476;5.704;2024-01-07T05:43:05;1.20;99.90
80426;DHT22;69766;51.476;5.704;2024-01-07T05:45:34;1.20;99.90
80426;DHT22;69766;51.476;5.704;2024-01-07T05:48:03;1.20;99.90
80426;DHT22;69766;51.476;5.704;2024-01-07T05:50:28;1.20;99.90
80426;DHT22;69766;51.476;5.704;2024-01-07T05:53:03;1.10;99.90
80426;DHT22;69766;51.476;5.704;2024-01-07T05:55:55;1.10;99.90
80426;DHT22;69766;51.476;5.704;2024-01-07T05:58:24;1.20;99.90
80426;DHT22;69766;51.476;5.704;2024-01-07T06:03:57;1.20;99.90
80426;DHT22;69766;51.476;5.704;2024-01-07T06:06:38;1.20;99.90
80426;DHT22;69766;51.476;5.704;2024-01-07T06:12:11;1.20;99.90
80426;DHT22;69766;51.476;5.704;2024-01-07T06:14:51;1.10;99.90
80426;DHT22;69766;51.476;5.704;2024-01-07T06:17:29;1.10;99.90
80426;DHT22;69766;51.476;5.704;2024-01-07T06:20:30;1.10;99.90
80426;DHT22;69766;51.476;5.704;2024-01-07T06:23:22;1.10;99.90
80426;DHT22;69766;51.476;5.704;2024-01-07T06:26:04;1.10;99.90
80426;DHT22;69766;51.476;5.704;2024-01-07T06:28:44;1.10;99.90
80426;DHT22;69766;51.476;5.704;2024-01-07T06:31:22;1.30;99.90
80426;DHT22;69766;51.476;5.704;2024-01-07T06:34:11;1.20;99.90
80426;DHT22;69766;51.476;5.704;2024-01-07T06:36:48;1.20;99.90
80426;DHT22;69766;51.476;5.704;2024-01-07T06:39:47;1.20;99.90
80426;DHT22;69766;51.476;5.704;2024-01-07T06:52:15;1.10;99.90
80426;DHT22;69766;51.476;5.704;2024-01-07T06:58:00;1.10;99.90
80426;DHT22;69766;51.476;5.704;2024-01-07T07:00:36;1.10;99.90
80426;DHT22;69766;51.476;5.704;2024-01-07T07:12:48;1.00;99.90
80426;DHT22;69766;51.476;5.704;2024-01-07T07:18:29;1.00;99.90
80426;DHT22;69766;51.476;5.704;2024-01-07T07:30:14;1.00;99.90
80426;DHT22;69766;51.476;5.704;2024-01-07T07:33:06;1.00;99.90
80426;DHT22;69766;51.476;5.704;2024-01-07T07:35:32;0.80;99.90
80426;DHT22;69766;51.476;5.704;2024-01-07T07:38:31;0.90;99.90
80426;DHT22;69766;51.476;5.704;2024-01-07T07:41:25;0.90;99.90
80426;DHT22;69766;51.476;5.704;2024-01-07T07:47:45;0.90;99.90
80426;DHT22;69766;51.476;5.704;2024-01-07T07:49:56;0.80;99.90
80426;DHT22;69766;51.476;5.704;2024-01-07T07:55:43;0.80;99.90
80426;DHT22;69766;51.476;5.704;2024-01-07T08:01:35;0.90;99.90
80426;DHT22;69766;51.476;5.704;2024-01-07T08:12:58;0.80;99.90
80426;DHT22;69766;51.476;5.704;2024-01-07T08:15:36;0.80;99.90
80426;DHT22;69766;51.476;5.704;2024-01-07T08:18:05;0.80;99.90
80426;DHT22;69766;51.476;5.704;2024-01-07T08:20:34;0.80;99.90
80426;DHT22;69766;51.476;5.704;2024-01-07T08:23:02;0.80;99.90
80426;DHT22;69766;51.476;5.704;2024-01-07T08:25:40;0.80;99.90
80426;DHT22;69766;51.476;5.704;2024-01-07T08:28:10;0.80;99.90
80426;DHT22;69766;51.476;5.704;2024-01-07T08:40:21;0.90;99.90
80426;DHT22;69766;51.476;5.704;2024-01-07T08:43:41;0.80;99.90
80426;DHT22;69766;51.476;5.704;2024-01-07T08:48:44;0.80;99.90
80426;DHT22;69766;51.476;5.704;2024-01-07T08:58:09;0.70;99.90
80426;DHT22;69766;51.476;5.704;2024-01-07T09:03:54;0.80;99.90
80426;DHT22;69766;51.476;5.704;2024-01-07T09:06:35;0.60;99.90
80426;DHT22;69766;51.476;5.704;2024-01-07T09:09:07;0.70;99.90
80426;DHT22;69766;51.476;5.704;2024-01-07T09:11:45;0.70;99.90
80426;DHT22;69766;51.476;5.704;2024-01-07T09:14:24;0.70;99.90
80426;DHT22;69766;51.476;5.704;2024-01-07T09:29:25;0.80;99.90
80426;DHT22;69766;51.476;5.704;2024-01-07T09:35:15;0.80;99.90
80426;DHT22;69766;51.476;5.704;2024-01-07T09:40:44;0.70;99.90
80426;DHT22;69766;51.476;5.704;2024-01-07T09:43:25;0.80;99.90
80426;DHT22;69766;51.476;5.704;2024-01-07T09:46:16;0.70;99.90
80426;DHT22;69766;51.476;5.704;2024-01-07T09:48:42;0.70;99.90
80426;DHT22;69766;51.476;5.704;2024-01-07T09:57:18;0.70;99.90
80426;DHT22;69766;51.476;5.704;2024-01-07T10:02:51;0.70;99.90
80426;DHT22;69766;51.476;5.704;2024-01-07T10:06:04;0.70;99.90
80426;DHT22;69766;51.476;5.704;2024-01-07T10:09:10;0.70;99.90
80426;DHT22;69766;51.476;5.704;2024-01-07T10:11:55;0.70;99.90
80426;DHT22;69766;51.476;5.704;2024-01-07T10:15:24;0.80;99.90
80426;DHT22;69766;51.476;5.704;2024-01-07T10:17:43;0.70;99.90
80426;DHT22;69766;51.476;5.704;2024-01-07T10:33:17;0.80;99.90
80426;DHT22;69766;51.476;5.704;2024-01-07T10:35:56;0.80;99.90
80426;DHT22;69766;51.476;5.704;2024-01-07T10:38:32;0.70;99.90
80426;DHT22;69766;51.476;5.704;2024-01-07T10:41:07;0.70;99.90
80426;DHT22;69766;51.476;5.704;2024-01-07T10:46:52;0.70;99.90
80426;DHT22;69766;51.476;5.704;2024-01-07T10:49:37;0.70;99.90
80426;DHT22;69766;51.476;5.704;2024-01-07T10:55:31;0.70;99.90
80426;DHT22;69766;51.476;5.704;2024-01-07T11:17:42;0.80;99.90
80426;DHT22;69766;51.476;5.704;2024-01-07T11:20:18;0.90;99.90
80426;DHT22;69766;51.476;5.704;2024-01-07T11:22:45;0.90;99.90
80426;DHT22;69766;51.476;5.704;2024-01-07T11:25:40;0.80;99.90
80426;DHT22;69766;51.476;5.704;2024-01-07T11:40:36;0.90;99.90
80426;DHT22;69766;51.476;5.704;2024-01-07T11:43:09;0.80;99.90
80426;DHT22;69766;51.476;5.704;2024-01-07T11:45:40;0.80;99.90
80426;DHT22;69766;51.476;5.704;2024-01-07T11:48:32;0.80;99.90
80426;DHT22;69766;51.476;5.704;2024-01-07T11:51:07;1.00;99.90
80426;DHT22;69766;51.476;5.704;2024-01-07T11:53:37;1.00;99.90
80426;DHT22;69766;51.476;5.704;2024-01-07T12:05:44;0.90;99.90
80426;DHT22;69766;51.476;5.704;2024-01-07T12:08:16;0.80;99.90
80426;DHT22;69766;51.476;5.704;2024-01-07T12:10:49;0.80;99.90
80426;DHT22;69766;51.476;5.704;2024-01-07T12:32:31;1.10;99.90
80426;DHT22;69766;51.476;5.704;2024-01-07T12:35:26;1.00;99.90
80426;DHT22;69766;51.476;5.704;2024-01-07T12:44:07;0.80;99.90
80426;DHT22;69766;51.476;5.704;2024-01-07T12:47:01;0.90;99.90
80426;DHT22;69766;51.476;5.704;2024-01-07T12:49:36;1.00;99.90
80426;DHT22;69766;51.476;5.704;2024-01-07T12:52:05;1.10;99.90
80426;DHT22;69766;51.476;5.704;2024-01-07T13:13:22;1.20;99.90
80426;DHT22;69766;51.476;5.704;2024-01-07T13:15:48;0.90;99.90
80426;DHT22;69766;51.476;5.704;2024-01-07T13:40:07;1.80;99.90
80426;DHT22;69766;51.476;5.704;2024-01-07T13:49:03;1.60;99.90
80426;DHT22;69766;51.476;5.704;2024-01-07T13:52:40;1.50;99.90
80426;DHT22;69766;51.476;5.704;2024-01-07T13:55:06;1.40;99.90
80426;DHT22;69766;51.476;5.704;2024-01-07T13:57:32;1.40;99.90
80426;DHT22;69766;51.476;5.704;2024-01-07T13:59:58;1.30;99.90
80426;DHT22;69766;51.476;5.704;2024-01-07T14:02:24;1.30;99.90
80426;DHT22;69766;51.476;5.704;2024-01-07T14:16:47;0.80;99.90
80426;DHT22;69766;51.476;5.704;2024-01-07T14:22:21;0.80;99.90
80426;DHT22;69766;51.476;5.704;2024-01-07T14:24:58;0.60;99.90
80426;DHT22;69766;51.476;5.704;2024-01-07T14:27:45;0.60;99.90
80426;DHT22;69766;51.476;5.704;2024-01-07T14:30:11;0.80;99.90
80426;DHT22;69766;51.476;5.704;2024-01-07T14:32:42;0.50;99.90
80426;DHT22;69766;51.476;5.704;2024-01-07T14:35:20;0.60;99.90
80426;DHT22;69766;51.476;5.704;2024-01-07T14:37:58;0.50;99.90
80426;DHT22;69766;51.476;5.704;2024-01-07T14:40:41;0.50;99.90
80426;DHT22;69766;51.476;5.704;2024-01-07T14:46:06;0.50;99.90
80426;DHT22;69766;51.476;5.704;2024-01-07T14:48:52;0.40;99.90
80426;DHT22;69766;51.476;5.704;2024-01-07T14:51:26;0.50;99.90
80426;DHT22;69766;51.476;5.704;2024-01-07T14:57:13;0.50;99.90
80426;DHT22;69766;51.476;5.704;2024-01-07T14:59:43;0.40;99.90
80426;DHT22;69766;51.476;5.704;2024-01-07T15:02:29;0.40;99.90
80426;DHT22;69766;51.476;5.704;2024-01-07T15:05:10;0.50;99.90
80426;DHT22;69766;51.476;5.704;2024-01-07T15:07:54;0.30;99.90
80426;DHT22;69766;51.476;5.704;2024-01-07T15:13:12;0.30;99.90
80426;DHT22;69766;51.476;5.704;2024-01-07T15:15:46;0.30;99.90
80426;DHT22;69766;51.476;5.704;2024-01-07T15:18:18;0.30;99.90
80426;DHT22;69766;51.476;5.704;2024-01-07T15:20:47;0.30;99.90
80426;DHT22;69766;51.476;5.704;2024-01-07T15:23:28;0.20;99.90
80426;DHT22;69766;51.476;5.704;2024-01-07T15:26:23;0.20;99.90
80426;DHT22;69766;51.476;5.704;2024-01-07T15:31:57;0.10;99.90
80426;DHT22;69766;51.476;5.704;2024-01-07T15:34:37;0.00;99.90
80426;DHT22;69766;51.476;5.704;2024-01-07T15:37:18;0.00;99.90
80426;DHT22;69766;51.476;5.704;2024-01-07T15:39:51;0.00;99.90
80426;DHT22;69766;51.476;5.704;2024-01-07T15:43:07;0.00;99.90
80426;DHT22;69766;51.476;5.704;2024-01-07T15:46:05;-0.10;99.90
80426;DHT22;69766;51.476;5.704;2024-01-07T15:48:37;-0.10;99.90
80426;DHT22;69766;51.476;5.704;2024-01-07T15:54:32;0.00;99.90
80426;DHT22;69766;51.476;5.704;2024-01-07T16:00:28;-0.20;99.90
80426;DHT22;69766;51.476;5.704;2024-01-07T16:06:40;0.10;99.90
80426;DHT22;69766;51.476;5.704;2024-01-07T16:09:43;0.00;99.90
80426;DHT22;69766;51.476;5.704;2024-01-07T16:12:38;0.00;99.90
80426;DHT22;69766;51.476;5.704;2024-01-07T16:21:45;-0.20;99.90
80426;DHT22;69766;51.476;5.704;2024-01-07T16:30:32;-0.30;99.90
80426;DHT22;69766;51.476;5.704;2024-01-07T16:33:08;-0.30;99.90
80426;DHT22;69766;51.476;5.704;2024-01-07T16:35:44;-0.30;99.90
80426;DHT22;69766;51.476;5.704;2024-01-07T16:38:19;-0.40;99.90
80426;DHT22;69766;51.476;5.704;2024-01-07T16:40:52;-0.30;99.90
80426;DHT22;69766;51.476;5.704;2024-01-07T16:43:23;-0.40;99.90
80426;DHT22;69766;51.476;5.704;2024-01-07T16:46:05;-0.30;99.90
80426;DHT22;69766;51.476;5.704;2024-01-07T16:49:00;-0.40;99.90
80426;DHT22;69766;51.476;5.704;2024-01-07T16:51:33;-0.50;99.90
80426;DHT22;69766;51.476;5.704;2024-01-07T16:54:09;-0.50;99.90
80426;DHT22;69766;51.476;5.704;2024-01-07T16:56:42;-0.50;99.90
80426;DHT22;69766;51.476;5.704;2024-01-07T16:59:27;-0.60;99.90
80426;DHT22;69766;51.476;5.704;2024-01-07T17:02:02;-0.60;99.90
80426;DHT22;69766;51.476;5.704;2024-01-07T17:04:36;-0.50;99.90
80426;DHT22;69766;51.476;5.704;2024-01-07T17:07:12;-0.50;99.90
80426;DHT22;69766;51.476;5.704;2024-01-07T17:09:44;-0.50;99.90
80426;DHT22;69766;51.476;5.704;2024-01-07T17:12:10;-0.50;99.90
80426;DHT22;69766;51.476;5.704;2024-01-07T17:17:46;-0.40;99.90
80426;DHT22;69766;51.476;5.704;2024-01-07T17:23:13;-0.50;99.90
80426;DHT22;69766;51.476;5.704;2024-01-07T17:26:02;-0.40;99.90
80426;DHT22;69766;51.476;5.704;2024-01-07T17:32:04;-0.40;99.90
80426;DHT22;69766;51.476;5.704;2024-01-07T17:35:19;-0.50;99.90
80426;DHT22;69766;51.476;5.704;2024-01-07T17:37:55;-0.50;99.90
80426;DHT22;69766;51.476;5.704;2024-01-07T17:46:48;-0.60;99.90
80426;DHT22;69766;51.476;5.704;2024-01-07T17:49:16;-0.60;99.90
80426;DHT22;69766;51.476;5.704;2024-01-07T17:52:00;-0.70;99.90
80426;DHT22;69766;51.476;5.704;2024-01-07T17:54:31;-0.80;99.90
80426;DHT22;69766;51.476;5.704;2024-01-07T17:57:28;-0.70;99.90
80426;DHT22;69766;51.476;5.704;2024-01-07T17:59:59;-0.70;99.90
80426;DHT22;69766;51.476;5.704;2024-01-07T18:02:28;-0.80;99.90
80426;DHT22;69766;51.476;5.704;2024-01-07T18:05:15;-0.80;99.90
80426;DHT22;69766;51.476;5.704;2024-01-07T18:08:04;-0.90;99.90
80426;DHT22;69766;51.476;5.704;2024-01-07T18:10:56;-0.80;99.90
80426;DHT22;69766;51.476;5.704;2024-01-07T18:16:40;-1.00;99.90
80426;DHT22;69766;51.476;5.704;2024-01-07T18:19:18;-0.90;99.90
80426;DHT22;69766;51.476;5.704;2024-01-07T18:21:51;-0.90;99.90
80426;DHT22;69766;51.476;5.704;2024-01-07T18:24:17;-0.90;99.90
80426;DHT22;69766;51.476;5.704;2024-01-07T18:27:11;-1.00;99.90
80426;DHT22;69766;51.476;5.704;2024-01-07T18:33:10;-1.00;99.90
80426;DHT22;69766;51.476;5.704;2024-01-07T18:38:54;-1.10;99.90
80426;DHT22;69766;51.476;5.704;2024-01-07T18:50:49;-1.30;99.90
80426;DHT22;69766;51.476;5.704;2024-01-07T18:53:24;-1.30;99.90
80426;DHT22;69766;51.476;5.704;2024-01-07T18:56:01;-1.30;99.90
80426;DHT22;69766;51.476;5.704;2024-01-07T18:58:49;-1.40;99.90
80426;DHT22;69766;51.476;5.704;2024-01-07T19:01:23;-1.40;99.90
80426;DHT22;69766;51.476;5.704;2024-01-07T19:03:51;-1.40;99.90
80426;DHT22;69766;51.476;5.704;2024-01-07T19:06:20;-1.40;99.90
80426;DHT22;69766;51.476;5.704;2024-01-07T19:08:47;-1.30;99.90
80426;DHT22;69766;51.476;5.704;2024-01-07T19:11:13;-1.30;99.90
80426;DHT22;69766;51.476;5.704;2024-01-07T19:13:54;-1.30;99.90
80426;DHT22;69766;51.476;5.704;2024-01-07T19:16:20;-1.30;99.90
80426;DHT22;69766;51.476;5.704;2024-01-07T19:18:52;-1.40;99.90
80426;DHT22;69766;51.476;5.704;2024-01-07T19:21:17;-1.30;99.90
80426;DHT22;69766;51.476;5.704;2024-01-07T19:23:43;-1.40;99.90
80426;DHT22;69766;51.476;5.704;2024-01-07T19:26:12;-1.40;99.90
80426;DHT22;69766;51.476;5.704;2024-01-07T19:28:38;-1.30;99.90
80426;DHT22;69766;51.476;5.704;2024-01-07T19:31:07;-1.40;99.90
80426;DHT22;69766;51.476;5.704;2024-01-07T19:33:35;-1.40;99.90
80426;DHT22;69766;51.476;5.704;2024-01-07T19:36:06;-1.40;99.90
80426;DHT22;69766;51.476;5.704;2024-01-07T19:38:32;-1.50;99.90
80426;DHT22;69766;51.476;5.704;2024-01-07T19:40:58;-1.50;99.90
80426;DHT22;69766;51.476;5.704;2024-01-07T19:43:36;-1.50;99.90
80426;DHT22;69766;51.476;5.704;2024-01-07T19:46:11;-1.40;99.90
80426;DHT22;69766;51.476;5.704;2024-01-07T19:48:55;-1.50;99.90
80426;DHT22;69766;51.476;5.704;2024-01-07T19:51:42;-1.50;99.90
80426;DHT22;69766;51.476;5.704;2024-01-07T19:54:40;-1.40;99.90
80426;DHT22;69766;51.476;5.704;2024-01-07T19:57:57;-1.40;99.90
80426;DHT22;69766;51.476;5.704;2024-01-07T20:00:37;-1.50;99.90
80426;DHT22;69766;51.476;5.704;2024-01-07T20:03:11;-1.50;99.90
80426;DHT22;69766;51.476;5.704;2024-01-07T20:05:43;-1.50;99.90
80426;DHT22;69766;51.476;5.704;2024-01-07T20:08:09;-1.60;99.90
80426;DHT22;69766;51.476;5.704;2024-01-07T20:10:59;-1.50;99.90
80426;DHT22;69766;51.476;5.704;2024-01-07T20:13:38;-1.60;99.90
80426;DHT22;69766;51.476;5.704;2024-01-07T20:16:10;-1.60;99.90
80426;DHT22;69766;51.476;5.704;2024-01-07T20:18:52;-1.60;99.90
80426;DHT22;69766;51.476;5.704;2024-01-07T20:22:03;-1.60;99.90
80426;DHT22;69766;51.476;5.704;2024-01-07T20:24:45;-1.70;99.90
80426;DHT22;69766;51.476;5.704;2024-01-07T20:28:04;-1.60;99.90
80426;DHT22;69766;51.476;5.704;2024-01-07T20:31:17;-1.60;99.90
80426;DHT22;69766;51.476;5.704;2024-01-07T20:33:44;-1.60;99.90
80426;DHT22;69766;51.476;5.704;2024-01-07T20:36:42;-1.70;99.90
80426;DHT22;69766;51.476;5.704;2024-01-07T20:39:28;-1.70;99.90
80426;DHT22;69766;51.476;5.704;2024-01-07T20:42:03;-1.70;99.90
80426;DHT22;69766;51.476;5.704;2024-01-07T20:44:43;-1.70;99.90
80426;DHT22;69766;51.476;5.704;2024-01-07T20:47:21;-1.80;99.90
80426;DHT22;69766;51.476;5.704;2024-01-07T20:50:02;-1.70;99.90
80426;DHT22;69766;51.476;5.704;2024-01-07T20:52:38;-1.80;99.90
80426;DHT22;69766;51.476;5.704;2024-01-07T20:55:36;-1.80;99.90
80426;DHT22;69766;51.476;5.704;2024-01-07T20:58:18;-1.80;99.90
80426;DHT22;69766;51.476;5.704;2024-01-07T21:00:51;-1.70;99.90
80426;DHT22;69766;51.476;5.704;2024-01-07T21:03:30;-1.90;99.90
80426;DHT22;69766;51.476;5.704;2024-01-07T21:09:00;-1.90;99.90
80426;DHT22;69766;51.476;5.704;2024-01-07T21:11:50;-1.80;99.90
80426;DHT22;69766;51.476;5.704;2024-01-07T21:14:38;-1.80;99.90
80426;DHT22;69766;51.476;5.704;2024-01-07T21:17:27;-1.90;99.90
80426;DHT22;69766;51.476;5.704;2024-01-07T21:23:42;-1.90;99.90
80426;DHT22;69766;51.476;5.704;2024-01-07T21:26:10;-2.00;99.90
80426;DHT22;69766;51.476;5.704;2024-01-07T21:28:59;-1.90;99.90
80426;DHT22;69766;51.476;5.704;2024-01-07T21:34:51;-1.90;99.90
80426;DHT22;69766;51.476;5.704;2024-01-07T21:37:28;-1.90;99.90
80426;DHT22;69766;51.476;5.704;2024-01-07T21:40:03;-2.10;99.90
80426;DHT22;69766;51.476;5.704;2024-01-07T21:42:33;-2.00;99.90
80426;DHT22;69766;51.476;5.704;2024-01-07T21:48:13;-2.00;99.90
80426;DHT22;69766;51.476;5.704;2024-01-07T21:51:14;-2.00;99.90
80426;DHT22;69766;51.476;5.704;2024-01-07T21:53:49;-2.10;99.90
80426;DHT22;69766;51.476;5.704;2024-01-07T21:56:40;-2.10;99.90
80426;DHT22;69766;51.476;5.704;2024-01-07T21:59:34;-2.00;99.90
80426;DHT22;69766;51.476;5.704;2024-01-07T22:02:00;-2.10;99.90
80426;DHT22;69766;51.476;5.704;2024-01-07T22:10:21;-2.10;99.90
80426;DHT22;69766;51.476;5.704;2024-01-07T22:13:23;-2.00;99.90
80426;DHT22;69766;51.476;5.704;2024-01-07T22:16:30;-1.90;99.90
80426;DHT22;69766;51.476;5.704;2024-01-07T22:18:59;-1.80;99.90
80426;DHT22;69766;51.476;5.704;2024-01-07T22:21:39;-1.70;99.90
80426;DHT22;69766;51.476;5.704;2024-01-07T22:24:42;-1.60;99.90
80426;DHT22;69766;51.476;5.704;2024-01-07T22:27:17;-1.60;99.90
80426;DHT22;69766;51.476;5.704;2024-01-07T22:29:46;-1.50;99.90
80426;DHT22;69766;51.476;5.704;2024-01-07T22:32:12;-1.50;99.90
80426;DHT22;69766;51.476;5.704;2024-01-07T22:35:00;-1.50;99.90
80426;DHT22;69766;51.476;5.704;2024-01-07T22:37:54;-1.40;99.90
80426;DHT22;69766;51.476;5.704;2024-01-07T22:43:17;-1.40;99.90
80426;DHT22;69766;51.476;5.704;2024-01-07T22:45:59;-1.40;99.90
80426;DHT22;69766;51.476;5.704;2024-01-07T22:48:38;-1.40;99.90
80426;DHT22;69766;51.476;5.704;2024-01-07T22:51:16;-1.40;99.90
80426;DHT22;69766;51.476;5.704;2024-01-07T22:53:48;-1.40;99.90
80426;DHT22;69766;51.476;5.704;2024-01-07T22:56:22;-1.40;99.90
80426;DHT22;69766;51.476;5.704;2024-01-07T23:02:02;-1.40;99.90
80426;DHT22;69766;51.476;5.704;2024-01-07T23:04:47;-1.50;99.90
80426;DHT22;69766;51.476;5.704;2024-01-07T23:07:16;-1.40;99.90
80426;DHT22;69766;51.476;5.704;2024-01-07T23:12:40;-1.50;99.90
80426;DHT22;69766;51.476;5.704;2024-01-07T23:15:16;-1.50;99.90
80426;DHT22;69766;51.476;5.704;2024-01-07T23:17:53;-1.40;99.90
80426;DHT22;69766;51.476;5.704;2024-01-07T23:20:37;-1.50;99.90
80426;DHT22;69766;51.476;5.704;2024-01-07T23:23:15;-1.50;99.90
80426;DHT22;69766;51.476;5.704;2024-01-07T23:25:50;-1.50;99.90
80426;DHT22;69766;51.476;5.704;2024-01-07T23:31:47;-1.50;99.90
80426;DHT22;69766;51.476;5.704;2024-01-07T23:34:23;-1.60;99.90
80426;DHT22;69766;51.476;5.704;2024-01-07T23:37:13;-1.60;99.90
80426;DHT22;69766;51.476;5.704;2024-01-07T23:39:44;-1.70;99.90
80426;DHT22;69766;51.476;5.704;2024-01-07T23:42:21;-1.70;99.90
80426;DHT22;69766;51.476;5.704;2024-01-07T23:44:51;-1.70;99.90
80426;DHT22;69766;51.476;5.704;2024-01-07T23:47:35;-1.60;99.90
80426;DHT22;69766;51.476;5.704;2024-01-07T23:50:12;-1.70;99.90
80426;DHT22;69766;51.476;5.704;2024-01-07T23:52:50;-1.60;99.90
80426;DHT22;69766;51.476;5.704;2024-01-07T23:55:42;-1.60;99.90
